Terminal Aerodrome Forecast
Issued by NWS

Home | Current Version | Previous Version | Text Only | Print | Product List | Glossary On
Versions: 1 2 3 4 5 6 7 8 9 10 11 12 13 14 15 16 17
000
FTUS43 KEAX 060100 AAA
TAFSTJ
TAF AMD
KSTJ 060122Z 0601/0624 14010KT P6SM SCT100 BKN150
      TEMPO 0601/0602 23015G25KT 6SM -SHRA BKN050
     FM061000 15011KT P6SM FEW040 SCT100 WS020/19035KT
     FM061400 17018G28KT P6SM -SHRA VCTS BKN030CB=

USA.gov is the U.S. government's official web portal to all federal, state and local government web resources and services.